SAS740 ESSA-EYVI
Flight info
| Callsign | SAS740 |
|---|---|
| Flight time | N/A |
| Altitude | 27000 |
| Route | BABAP P156 RASEL/N0444F370 DCT ASKOR DCT OTNAV |
| Aircraft | CRJ9/M-SDFGIRWY/S |
Departure
| Time | 2026-05-07 17:33 |
|---|---|
| Airport | Stockholm-Arlanda Airport (ESSA) |
Arrival
| Time | N/A |
|---|---|
| Airport | Vilnius International Airport (EYVI) |
| Time | Latitude | Longitude | Altitude | Speed | Heading |
|---|---|---|---|---|---|
| 2026-05-07 17:07 | 59.65198 | 17.93015 | 110 ft | 0 kts | 70° |
| 2026-05-07 17:22 | 59.65196 | 17.93001 | 110 ft | 4 kts | 75° |
| 2026-05-07 17:22 | 59.65196 | 17.92951 | 110 ft | 4 kts | 104° |
| 2026-05-07 17:22 | 59.65205 | 17.92901 | 108 ft | 4 kts | 110° |
| 2026-05-07 17:22 | 59.65212 | 17.92861 | 107 ft | 4 kts | 109° |
| 2026-05-07 17:23 | 59.65221 | 17.92811 | 108 ft | 4 kts | 109° |
| 2026-05-07 17:23 | 59.65229 | 17.92760 | 109 ft | 4 kts | 109° |
| 2026-05-07 17:23 | 59.65233 | 17.92741 | 109 ft | 1 kts | 109° |
| 2026-05-07 17:25 | 59.65233 | 17.92742 | 108 ft | 0 kts | 109° |
| 2026-05-07 17:25 | 59.65231 | 17.92749 | 108 ft | 1 kts | 109° |
| 2026-05-07 17:25 | 59.65231 | 17.92752 | 108 ft | 0 kts | 109° |
| 2026-05-07 17:27 | 59.65228 | 17.92774 | 109 ft | 1 kts | 93° |
| 2026-05-07 17:28 | 59.65229 | 17.92780 | 108 ft | 3 kts | 55° |
| 2026-05-07 17:28 | 59.65247 | 17.92819 | 99 ft | 0 kts | 21° |
| 2026-05-07 17:28 | 59.65252 | 17.92818 | 122 ft | 4 kts | 352° |
| 2026-05-07 17:28 | 59.65277 | 17.92795 | 109 ft | 8 kts | 331° |
| 2026-05-07 17:29 | 59.65347 | 17.92720 | 110 ft | 13 kts | 331° |
| 2026-05-07 17:29 | 59.65427 | 17.92634 | 108 ft | 14 kts | 331° |
| 2026-05-07 17:29 | 59.65529 | 17.92533 | 103 ft | 18 kts | 340° |
| 2026-05-07 17:29 | 59.65654 | 17.92468 | 101 ft | 19 kts | 346° |
| 2026-05-07 17:30 | 59.65779 | 17.92430 | 103 ft | 17 kts | 2° |
| 2026-05-07 17:30 | 59.65889 | 17.92470 | 105 ft | 15 kts | 10° |
| 2026-05-07 17:30 | 59.65989 | 17.92498 | 107 ft | 14 kts | 10° |
| 2026-05-07 17:30 | 59.66078 | 17.92533 | 109 ft | 13 kts | 11° |
| 2026-05-07 17:31 | 59.66160 | 17.92563 | 111 ft | 11 kts | 10° |
| 2026-05-07 17:31 | 59.66232 | 17.92588 | 113 ft | 9 kts | 12° |
| 2026-05-07 17:31 | 59.66293 | 17.92613 | 115 ft | 10 kts | 12° |
| 2026-05-07 17:31 | 59.66376 | 17.92644 | 118 ft | 15 kts | 8° |
| 2026-05-07 17:32 | 59.66492 | 17.92636 | 117 ft | 18 kts | 341° |
| 2026-05-07 17:32 | 59.66603 | 17.92540 | 123 ft | 17 kts | 308° |
| 2026-05-07 17:32 | 59.66582 | 17.92353 | 121 ft | 10 kts | 195° |
| 2026-05-07 17:32 | 59.66386 | 17.92285 | 118 ft | 60 kts | 189° |
| 2026-05-07 17:33 | 59.65763 | 17.92059 | 108 ft | 120 kts | 192° |
| 2026-05-07 17:33 | 59.64788 | 17.91743 | 156 ft | 157 kts | 191° |
| 2026-05-07 17:33 | 59.63699 | 17.91295 | 699 ft | 164 kts | 188° |
| 2026-05-07 17:33 | 59.62562 | 17.90886 | 1344 ft | 167 kts | 187° |
| 2026-05-07 17:34 | 59.61265 | 17.90599 | 1419 ft | 211 kts | 184° |
| 2026-05-07 17:34 | 59.59666 | 17.90392 | 1482 ft | 250 kts | 182° |
| 2026-05-07 17:34 | 59.57936 | 17.90261 | 1781 ft | 252 kts | 178° |
| 2026-05-07 17:34 | 59.56300 | 17.91234 | 2802 ft | 252 kts | 142° |
| 2026-05-07 17:35 | 59.55039 | 17.93654 | 3685 ft | 256 kts | 130° |
| 2026-05-07 17:35 | 59.54274 | 17.96827 | 4472 ft | 264 kts | 97° |
| 2026-05-07 17:35 | 59.54490 | 18.00605 | 4521 ft | 298 kts | 69° |
| 2026-05-07 17:35 | 59.54869 | 18.04656 | 5415 ft | 297 kts | 95° |
| 2026-05-07 17:36 | 59.54178 | 18.08477 | 6387 ft | 304 kts | 124° |
| 2026-05-07 17:36 | 59.52646 | 18.11249 | 6822 ft | 291 kts | 146° |
| 2026-05-07 17:36 | 59.50994 | 18.13495 | 6995 ft | 288 kts | 144° |
| 2026-05-07 17:36 | 59.49411 | 18.15930 | 7053 ft | 289 kts | 140° |
| 2026-05-07 17:37 | 59.47929 | 18.18632 | 7373 ft | 291 kts | 134° |
| 2026-05-07 17:37 | 59.46537 | 18.21566 | 8172 ft | 296 kts | 131° |
| 2026-05-07 17:37 | 59.45191 | 18.24685 | 8934 ft | 302 kts | 130° |
| 2026-05-07 17:37 | 59.43840 | 18.27890 | 9701 ft | 307 kts | 130° |
| 2026-05-07 17:38 | 59.42452 | 18.31128 | 10419 ft | 312 kts | 131° |
| 2026-05-07 17:38 | 59.41051 | 18.34379 | 11118 ft | 316 kts | 131° |
| 2026-05-07 17:38 | 59.39636 | 18.37635 | 11817 ft | 320 kts | 132° |
| 2026-05-07 17:38 | 59.38172 | 18.40975 | 12523 ft | 324 kts | 132° |
| 2026-05-07 17:39 | 59.36695 | 18.44340 | 13230 ft | 328 kts | 133° |
| 2026-05-07 17:39 | 59.35191 | 18.47740 | 13940 ft | 332 kts | 133° |
| 2026-05-07 17:39 | 59.33669 | 18.51176 | 14565 ft | 336 kts | 133° |
| 2026-05-07 17:39 | 59.32124 | 18.54669 | 15038 ft | 346 kts | 133° |
| 2026-05-07 17:40 | 59.30510 | 18.58319 | 15280 ft | 363 kts | 133° |
| 2026-05-07 17:40 | 59.28829 | 18.62108 | 15714 ft | 372 kts | 133° |
| 2026-05-07 17:40 | 59.27128 | 18.65955 | 16328 ft | 376 kts | 133° |
| 2026-05-07 17:40 | 59.25408 | 18.69840 | 16925 ft | 380 kts | 134° |
| 2026-05-07 17:41 | 59.23662 | 18.73762 | 17515 ft | 384 kts | 134° |
| 2026-05-07 17:41 | 59.21903 | 18.77709 | 18090 ft | 388 kts | 134° |
| 2026-05-07 17:41 | 59.20116 | 18.81702 | 18627 ft | 392 kts | 134° |
| 2026-05-07 17:41 | 59.18338 | 18.85671 | 19111 ft | 395 kts | 134° |
| 2026-05-07 17:42 | 59.16519 | 18.89723 | 19595 ft | 399 kts | 135° |
| 2026-05-07 17:42 | 59.14686 | 18.93808 | 20069 ft | 402 kts | 135° |
| 2026-05-07 17:42 | 59.12837 | 18.97918 | 20532 ft | 405 kts | 135° |
| 2026-05-07 17:42 | 59.10975 | 19.02059 | 20992 ft | 409 kts | 135° |
| 2026-05-07 17:43 | 59.09094 | 19.06241 | 21434 ft | 412 kts | 135° |
| 2026-05-07 17:43 | 59.07192 | 19.10442 | 21879 ft | 415 kts | 135° |
| 2026-05-07 17:43 | 59.05272 | 19.14675 | 22310 ft | 418 kts | 135° |
| 2026-05-07 17:43 | 59.03336 | 19.18919 | 22713 ft | 421 kts | 135° |
| 2026-05-07 17:44 | 59.01390 | 19.23188 | 23189 ft | 423 kts | 135° |
| 2026-05-07 17:44 | 58.99375 | 19.27356 | 23576 ft | 423 kts | 144° |
| 2026-05-07 17:44 | 58.96976 | 19.30581 | 23934 ft | 419 kts | 154° |
| 2026-05-07 17:44 | 58.94440 | 19.33369 | 24275 ft | 420 kts | 156° |
| 2026-05-07 17:45 | 58.91909 | 19.36137 | 24612 ft | 423 kts | 155° |
| 2026-05-07 17:45 | 58.89381 | 19.39089 | 24947 ft | 426 kts | 153° |
| 2026-05-07 17:45 | 58.86878 | 19.42175 | 25280 ft | 428 kts | 152° |
| 2026-05-07 17:45 | 58.84357 | 19.45264 | 25603 ft | 430 kts | 153° |
| 2026-05-07 17:46 | 58.81848 | 19.48294 | 25916 ft | 431 kts | 153° |
| 2026-05-07 17:46 | 58.79300 | 19.51373 | 26225 ft | 433 kts | 153° |
| 2026-05-07 17:46 | 58.76740 | 19.54462 | 26527 ft | 435 kts | 153° |
| 2026-05-07 17:46 | 58.74163 | 19.57563 | 26823 ft | 437 kts | 153° |
| 2026-05-07 17:47 | 58.71566 | 19.60682 | 27006 ft | 442 kts | 153° |
| 2026-05-07 17:47 | 58.68941 | 19.63831 | 27086 ft | 449 kts | 152° |
| 2026-05-07 17:47 | 58.66258 | 19.67042 | 27091 ft | 456 kts | 152° |
| 2026-05-07 17:47 | 58.63547 | 19.70293 | 27131 ft | 464 kts | 152° |
| 2026-05-07 17:48 | 58.60782 | 19.73589 | 27140 ft | 471 kts | 152° |
| 2026-05-07 17:48 | 58.57976 | 19.76928 | 27148 ft | 478 kts | 152° |
| 2026-05-07 17:48 | 58.55129 | 19.80324 | 27148 ft | 484 kts | 152° |
| 2026-05-07 17:48 | 58.52251 | 19.83732 | 27150 ft | 487 kts | 152° |
| 2026-05-07 17:49 | 58.49359 | 19.87151 | 27151 ft | 491 kts | 152° |
| 2026-05-07 17:49 | 58.46491 | 19.90544 | 27148 ft | 491 kts | 152° |
| 2026-05-07 17:49 | 58.43583 | 19.93972 | 27145 ft | 491 kts | 152° |
| 2026-05-07 17:49 | 58.40671 | 19.97394 | 27142 ft | 491 kts | 152° |
| 2026-05-07 17:50 | 58.37762 | 20.00815 | 27139 ft | 490 kts | 152° |
| 2026-05-07 17:50 | 58.34857 | 20.04214 | 27139 ft | 490 kts | 152° |
| 2026-05-07 17:50 | 58.31952 | 20.07613 | 27137 ft | 490 kts | 152° |
| 2026-05-07 17:50 | 58.29051 | 20.11003 | 27109 ft | 489 kts | 152° |
| 2026-05-07 17:51 | 58.26146 | 20.14396 | 27126 ft | 489 kts | 152° |
| 2026-05-07 17:51 | 58.23247 | 20.17769 | 27125 ft | 488 kts | 152° |
| 2026-05-07 17:51 | 58.20349 | 20.21128 | 27131 ft | 487 kts | 152° |
| 2026-05-07 17:51 | 58.17460 | 20.24476 | 27133 ft | 487 kts | 152° |
| 2026-05-07 17:52 | 58.14564 | 20.27818 | 27136 ft | 487 kts | 152° |
| 2026-05-07 17:52 | 58.11678 | 20.31154 | 27136 ft | 486 kts | 152° |
| 2026-05-07 17:52 | 58.08788 | 20.34479 | 27128 ft | 486 kts | 152° |
| 2026-05-07 17:52 | 58.05894 | 20.37803 | 27128 ft | 486 kts | 153° |
| 2026-05-07 17:53 | 58.03004 | 20.41110 | 27127 ft | 486 kts | 152° |
| 2026-05-07 17:53 | 58.00235 | 20.44687 | 27127 ft | 488 kts | 147° |
| 2026-05-07 17:53 | 57.97553 | 20.48616 | 27129 ft | 489 kts | 145° |
| 2026-05-07 17:53 | 57.94887 | 20.52579 | 27129 ft | 488 kts | 145° |
| 2026-05-07 17:54 | 57.92193 | 20.56488 | 27096 ft | 487 kts | 146° |
| 2026-05-07 17:54 | 57.89475 | 20.60285 | 27113 ft | 485 kts | 147° |
| 2026-05-07 17:54 | 57.86772 | 20.64070 | 27121 ft | 483 kts | 147° |
| 2026-05-07 17:54 | 57.84083 | 20.67829 | 27126 ft | 481 kts | 147° |
| 2026-05-07 17:55 | 57.81395 | 20.71570 | 27123 ft | 480 kts | 147° |
| 2026-05-07 17:55 | 57.78720 | 20.75293 | 27110 ft | 478 kts | 147° |
| 2026-05-07 17:55 | 57.76071 | 20.78970 | 27121 ft | 477 kts | 147° |
| 2026-05-07 17:55 | 57.73438 | 20.82617 | 27112 ft | 476 kts | 147° |
| 2026-05-07 17:56 | 57.70781 | 20.86295 | 27117 ft | 475 kts | 147° |
| 2026-05-07 17:56 | 57.68124 | 20.89960 | 27110 ft | 474 kts | 147° |
| 2026-05-07 17:56 | 57.65465 | 20.93623 | 27120 ft | 473 kts | 147° |
| 2026-05-07 17:56 | 57.62819 | 20.97270 | 27097 ft | 472 kts | 147° |
| 2026-05-07 17:57 | 57.60175 | 21.00890 | 27111 ft | 471 kts | 148° |
| 2026-05-07 17:57 | 57.58428 | 21.03281 | 27113 ft | 471 kts | 148° |
| 2026-05-07 17:57 | 57.54904 | 21.08113 | 27110 ft | 470 kts | 148° |
| 2026-05-07 17:57 | 57.52269 | 21.11713 | 27097 ft | 468 kts | 148° |
| 2026-05-07 17:58 | 57.49639 | 21.15283 | 27100 ft | 469 kts | 148° |
| 2026-05-07 17:58 | 57.47008 | 21.18865 | 27102 ft | 469 kts | 148° |
| 2026-05-07 17:58 | 57.44378 | 21.22443 | 27102 ft | 469 kts | 148° |
| 2026-05-07 17:58 | 57.41742 | 21.26014 | 27102 ft | 469 kts | 148° |
| 2026-05-07 17:59 | 57.39137 | 21.29543 | 27100 ft | 469 kts | 148° |
| 2026-05-07 17:59 | 57.36496 | 21.33106 | 27101 ft | 469 kts | 148° |
| 2026-05-07 17:59 | 57.33855 | 21.36670 | 27091 ft | 469 kts | 149° |
| 2026-05-07 17:59 | 57.31210 | 21.40221 | 27098 ft | 469 kts | 149° |
| 2026-05-07 18:00 | 57.28572 | 21.43766 | 27100 ft | 469 kts | 149° |
| 2026-05-07 18:00 | 57.26205 | 21.46940 | 27101 ft | 469 kts | 149° |
| 2026-05-07 18:00 | 57.24233 | 21.49586 | 27101 ft | 469 kts | 149° |
| 2026-05-07 18:00 | 57.21993 | 21.52580 | 27102 ft | 469 kts | 149° |
| 2026-05-07 18:01 | 57.20464 | 21.54626 | 27104 ft | 469 kts | 149° |
| 2026-05-07 18:01 | 57.18380 | 21.57404 | 27101 ft | 469 kts | 149° |
| 2026-05-07 18:01 | 57.16739 | 21.59590 | 27097 ft | 469 kts | 149° |
| 2026-05-07 18:01 | 57.14681 | 21.62316 | 27078 ft | 469 kts | 149° |
| 2026-05-07 18:02 | 57.10660 | 21.67663 | 27092 ft | 468 kts | 149° |
| 2026-05-07 18:02 | 57.08323 | 21.70760 | 27096 ft | 468 kts | 149° |
| 2026-05-07 18:02 | 57.05924 | 21.73940 | 27096 ft | 468 kts | 149° |
| 2026-05-07 18:03 | 57.03476 | 21.77174 | 27079 ft | 468 kts | 150° |
| 2026-05-07 18:03 | 57.01058 | 21.80350 | 27084 ft | 467 kts | 150° |
| 2026-05-07 18:03 | 56.98859 | 21.83247 | 27086 ft | 467 kts | 150° |
| 2026-05-07 18:03 | 56.96303 | 21.86610 | 27087 ft | 467 kts | 150° |
| 2026-05-07 18:04 | 56.93666 | 21.90063 | 27085 ft | 467 kts | 150° |
| 2026-05-07 18:04 | 56.91023 | 21.93529 | 27088 ft | 467 kts | 150° |
| 2026-05-07 18:04 | 56.88377 | 21.96982 | 27086 ft | 467 kts | 150° |
| 2026-05-07 18:04 | 56.85764 | 22.00394 | 27083 ft | 467 kts | 150° |
| 2026-05-07 18:05 | 56.83123 | 22.03838 | 27083 ft | 467 kts | 150° |
| 2026-05-07 18:05 | 56.80477 | 22.07273 | 27081 ft | 467 kts | 150° |
| 2026-05-07 18:05 | 56.77827 | 22.10718 | 27080 ft | 468 kts | 150° |
| 2026-05-07 18:05 | 56.75175 | 22.14156 | 27071 ft | 468 kts | 150° |
| 2026-05-07 18:06 | 56.72516 | 22.17592 | 27078 ft | 468 kts | 150° |
| 2026-05-07 18:06 | 56.69854 | 22.21023 | 27078 ft | 469 kts | 150° |
| 2026-05-07 18:06 | 56.67191 | 22.24459 | 27080 ft | 470 kts | 150° |
| 2026-05-07 18:06 | 56.64516 | 22.27898 | 27077 ft | 470 kts | 150° |
| 2026-05-07 18:07 | 56.61841 | 22.31334 | 27074 ft | 471 kts | 150° |
| 2026-05-07 18:07 | 56.59159 | 22.34778 | 27068 ft | 471 kts | 150° |
| 2026-05-07 18:07 | 56.56476 | 22.38202 | 27072 ft | 472 kts | 150° |
| 2026-05-07 18:07 | 56.53794 | 22.41633 | 27074 ft | 472 kts | 150° |
| 2026-05-07 18:08 | 56.51134 | 22.45024 | 27068 ft | 472 kts | 151° |
| 2026-05-07 18:08 | 56.48438 | 22.48455 | 27072 ft | 473 kts | 150° |
| 2026-05-07 18:08 | 56.45741 | 22.51885 | 27054 ft | 472 kts | 151° |
| 2026-05-07 18:08 | 56.43047 | 22.55297 | 27061 ft | 473 kts | 151° |
| 2026-05-07 18:09 | 56.40353 | 22.58718 | 27049 ft | 473 kts | 151° |
| 2026-05-07 18:09 | 56.37673 | 22.62165 | 27060 ft | 473 kts | 150° |
| 2026-05-07 18:09 | 56.35062 | 22.65804 | 27057 ft | 476 kts | 147° |
| 2026-05-07 18:09 | 56.32520 | 22.69657 | 27058 ft | 477 kts | 146° |
| 2026-05-07 18:10 | 56.29997 | 22.73521 | 27063 ft | 477 kts | 146° |
| 2026-05-07 18:10 | 56.27458 | 22.77372 | 27064 ft | 476 kts | 147° |
| 2026-05-07 18:10 | 56.24899 | 22.81151 | 27061 ft | 476 kts | 147° |
| 2026-05-07 18:10 | 56.22368 | 22.84878 | 27055 ft | 476 kts | 147° |
| 2026-05-07 18:11 | 56.19806 | 22.88650 | 27054 ft | 476 kts | 147° |
| 2026-05-07 18:11 | 56.18072 | 22.91200 | 27056 ft | 476 kts | 147° |
| 2026-05-07 18:11 | 56.14677 | 22.96173 | 27052 ft | 476 kts | 147° |
| 2026-05-07 18:11 | 56.12109 | 22.99926 | 27053 ft | 476 kts | 147° |
| 2026-05-07 18:12 | 56.09544 | 23.03676 | 27051 ft | 476 kts | 147° |
| 2026-05-07 18:12 | 56.07844 | 23.06148 | 27053 ft | 476 kts | 147° |
| 2026-05-07 18:12 | 56.05277 | 23.09892 | 27052 ft | 476 kts | 147° |
| 2026-05-07 18:12 | 56.02707 | 23.13623 | 27051 ft | 476 kts | 147° |
| 2026-05-07 18:13 | 56.00137 | 23.17352 | 27033 ft | 476 kts | 148° |
| 2026-05-07 18:13 | 55.97575 | 23.21067 | 27047 ft | 473 kts | 147° |
| 2026-05-07 18:13 | 55.95026 | 23.24748 | 27021 ft | 470 kts | 148° |
| 2026-05-07 18:13 | 55.92485 | 23.28411 | 27030 ft | 467 kts | 148° |
| 2026-05-07 18:14 | 55.89958 | 23.32055 | 27036 ft | 464 kts | 148° |
| 2026-05-07 18:14 | 55.87447 | 23.35663 | 27038 ft | 463 kts | 148° |
| 2026-05-07 18:14 | 55.84949 | 23.39248 | 27040 ft | 461 kts | 148° |
| 2026-05-07 18:14 | 55.82456 | 23.42824 | 27041 ft | 459 kts | 148° |
| 2026-05-07 18:15 | 55.79973 | 23.46373 | 27042 ft | 457 kts | 148° |
| 2026-05-07 18:15 | 55.77529 | 23.49866 | 27042 ft | 456 kts | 148° |
| 2026-05-07 18:15 | 55.75057 | 23.53389 | 27040 ft | 455 kts | 148° |
| 2026-05-07 18:15 | 55.72589 | 23.56901 | 27033 ft | 454 kts | 148° |
| 2026-05-07 18:16 | 55.70132 | 23.60398 | 27033 ft | 453 kts | 148° |
| 2026-05-07 18:16 | 55.67675 | 23.63878 | 27018 ft | 452 kts | 148° |
| 2026-05-07 18:16 | 55.65216 | 23.67366 | 27029 ft | 451 kts | 148° |
| 2026-05-07 18:16 | 55.62770 | 23.70823 | 27028 ft | 450 kts | 148° |
| 2026-05-07 18:17 | 55.60321 | 23.74286 | 27005 ft | 449 kts | 148° |
| 2026-05-07 18:17 | 55.57875 | 23.77721 | 27020 ft | 448 kts | 148° |
| 2026-05-07 18:17 | 55.55472 | 23.81113 | 27020 ft | 448 kts | 148° |
| 2026-05-07 18:17 | 55.53002 | 23.84582 | 27018 ft | 447 kts | 148° |
| 2026-05-07 18:18 | 55.50621 | 23.87926 | 27015 ft | 446 kts | 148° |
| 2026-05-07 18:18 | 55.48186 | 23.91337 | 27007 ft | 447 kts | 148° |
| 2026-05-07 18:18 | 55.45755 | 23.94736 | 26418 ft | 446 kts | 148° |
| 2026-05-07 18:18 | 55.43314 | 23.98144 | 25821 ft | 446 kts | 147° |
| 2026-05-07 18:19 | 55.40886 | 24.01524 | 25272 ft | 445 kts | 147° |
| 2026-05-07 18:19 | 55.38455 | 24.04906 | 24735 ft | 445 kts | 147° |
| 2026-05-07 18:19 | 55.36027 | 24.08279 | 24206 ft | 445 kts | 147° |
| 2026-05-07 18:19 | 55.33595 | 24.11654 | 23688 ft | 445 kts | 147° |
| 2026-05-07 18:20 | 55.31166 | 24.15020 | 23083 ft | 444 kts | 147° |
| 2026-05-07 18:20 | 55.28735 | 24.18380 | 22477 ft | 443 kts | 147° |
| 2026-05-07 18:20 | 55.26310 | 24.21724 | 21889 ft | 443 kts | 146° |
| 2026-05-07 18:20 | 55.23923 | 24.25028 | 21315 ft | 442 kts | 147° |
| 2026-05-07 18:21 | 55.21490 | 24.28353 | 20748 ft | 442 kts | 147° |
| 2026-05-07 18:21 | 55.19065 | 24.31678 | 20188 ft | 441 kts | 146° |
| 2026-05-07 18:21 | 55.16667 | 24.34981 | 19634 ft | 432 kts | 146° |
| 2026-05-07 18:21 | 55.14371 | 24.38128 | 19097 ft | 408 kts | 147° |
| 2026-05-07 18:22 | 55.12203 | 24.41082 | 18564 ft | 390 kts | 147° |
| 2026-05-07 18:22 | 55.10778 | 24.43018 | 18193 ft | 379 kts | 147° |
| 2026-05-07 18:22 | 55.08137 | 24.46607 | 17403 ft | 360 kts | 147° |